Terminal Aerodrome Forecast
Issued by NWS

Home | Current Version | Previous Version | Graphics & Text | Print | Product List | Glossary On
Versions: 1 2 3 4 5 6 7 8 9 10 11 12 13 14 15 16 17 18 19 20 21 22 23 24 25 26 27
000
FTUS43 KLOT 302107 AAA
TAFDPA
TAF AMD
KDPA 302107Z 3021/0118 24013G20KT P6SM VCSH BKN015 OVC020
     FM010200 24013G20KT P6SM VCSH OVC015
     FM010500 25013G20KT 6SM -SHSN OVC015
     FM011000 26012G18KT P6SM -SHSN SCT008 OVC012
     FM011700 27013G20KT P6SM OVC025=

USA.gov is the U.S. government's official web portal to all federal, state and local government web resources and services.